AZA8001 LICJ-LICJ
Flight info
| Callsign | AZA8001 |
|---|---|
| Flight time | 0h 27m |
| Altitude | 21000 |
| Route | ROSAS DCT GIANO |
| Aircraft | A321/M-SDE3FGHIRWY/LB1 |
Departure
| Time | 2026-04-30 19:49 |
|---|---|
| Airport | Falcone–Borsellino Airport (LICJ) |
Arrival
| Time | 2026-04-30 20:16 |
|---|---|
| Airport | Falcone–Borsellino Airport (LICJ) |
| Time | Latitude | Longitude | Altitude | Speed | Heading |
|---|---|---|---|---|---|
| 2026-04-30 19:34 | 38.18401 | 13.10642 | 53 ft | 0 kts | 157° |
| 2026-04-30 19:42 | 38.18410 | 13.10637 | 51 ft | 4 kts | 159° |
| 2026-04-30 19:42 | 38.18436 | 13.10627 | 51 ft | 4 kts | 172° |
| 2026-04-30 19:42 | 38.18462 | 13.10627 | 53 ft | 4 kts | 199° |
| 2026-04-30 19:42 | 38.18480 | 13.10642 | 53 ft | 2 kts | 246° |
| 2026-04-30 19:43 | 38.18480 | 13.10643 | 53 ft | 0 kts | 246° |
| 2026-04-30 19:44 | 38.18478 | 13.10635 | 53 ft | 5 kts | 246° |
| 2026-04-30 19:45 | 38.18455 | 13.10567 | 53 ft | 13 kts | 247° |
| 2026-04-30 19:45 | 38.18386 | 13.10500 | 50 ft | 12 kts | 200° |
| 2026-04-30 19:45 | 38.18320 | 13.10442 | 53 ft | 12 kts | 239° |
| 2026-04-30 19:45 | 38.18264 | 13.10368 | 53 ft | 11 kts | 183° |
| 2026-04-30 19:46 | 38.18195 | 13.10307 | 53 ft | 17 kts | 244° |
| 2026-04-30 19:46 | 38.18147 | 13.10168 | 53 ft | 16 kts | 246° |
| 2026-04-30 19:46 | 38.18102 | 13.10030 | 53 ft | 20 kts | 247° |
| 2026-04-30 19:46 | 38.18036 | 13.09836 | 53 ft | 27 kts | 247° |
| 2026-04-30 19:47 | 38.17964 | 13.09623 | 52 ft | 26 kts | 247° |
| 2026-04-30 19:47 | 38.17919 | 13.09487 | 53 ft | 25 kts | 247° |
| 2026-04-30 19:47 | 38.17833 | 13.09230 | 53 ft | 23 kts | 246° |
| 2026-04-30 19:47 | 38.17773 | 13.09051 | 53 ft | 21 kts | 247° |
| 2026-04-30 19:48 | 38.17673 | 13.08887 | 53 ft | 28 kts | 218° |
| 2026-04-30 19:48 | 38.17530 | 13.08770 | 53 ft | 18 kts | 184° |
| 2026-04-30 19:48 | 38.17511 | 13.08888 | 53 ft | 23 kts | 67° |
| 2026-04-30 19:48 | 38.17653 | 13.09310 | 53 ft | 84 kts | 67° |
| 2026-04-30 19:49 | 38.17957 | 13.10213 | 52 ft | 136 kts | 67° |
| 2026-04-30 19:49 | 38.18752 | 13.12574 | 1054 ft | 146 kts | 67° |
| 2026-04-30 19:49 | 38.19153 | 13.13765 | 1652 ft | 148 kts | 68° |
| 2026-04-30 19:50 | 38.19574 | 13.15022 | 2032 ft | 164 kts | 68° |
| 2026-04-30 19:50 | 38.20043 | 13.16427 | 2268 ft | 186 kts | 68° |
| 2026-04-30 19:50 | 38.20586 | 13.18044 | 2456 ft | 209 kts | 68° |
| 2026-04-30 19:50 | 38.21408 | 13.19696 | 2710 ft | 236 kts | 42° |
| 2026-04-30 19:51 | 38.22915 | 13.20706 | 3230 ft | 253 kts | 25° |
| 2026-04-30 19:51 | 38.24543 | 13.21554 | 4005 ft | 256 kts | 24° |
| 2026-04-30 19:51 | 38.26211 | 13.22423 | 4849 ft | 259 kts | 23° |
| 2026-04-30 19:51 | 38.27881 | 13.23297 | 5649 ft | 263 kts | 22° |
| 2026-04-30 19:52 | 38.29596 | 13.24200 | 6414 ft | 268 kts | 21° |
| 2026-04-30 19:52 | 38.31320 | 13.25112 | 7087 ft | 273 kts | 21° |
| 2026-04-30 19:52 | 38.33097 | 13.26053 | 7850 ft | 277 kts | 20° |
| 2026-04-30 19:52 | 38.34892 | 13.27007 | 8590 ft | 280 kts | 20° |
| 2026-04-30 19:53 | 38.36685 | 13.27964 | 9341 ft | 283 kts | 20° |
| 2026-04-30 19:53 | 38.38515 | 13.28942 | 10071 ft | 286 kts | 20° |
| 2026-04-30 19:53 | 38.40390 | 13.29944 | 10434 ft | 303 kts | 20° |
| 2026-04-30 19:53 | 38.42396 | 13.31013 | 10567 ft | 325 kts | 20° |
| 2026-04-30 19:54 | 38.44559 | 13.32167 | 10817 ft | 342 kts | 20° |
| 2026-04-30 19:54 | 38.46750 | 13.33338 | 11372 ft | 347 kts | 20° |
| 2026-04-30 19:54 | 38.49015 | 13.34547 | 12018 ft | 351 kts | 19° |
| 2026-04-30 19:54 | 38.51262 | 13.35747 | 12660 ft | 354 kts | 19° |
| 2026-04-30 19:55 | 38.53550 | 13.36971 | 13313 ft | 357 kts | 19° |
| 2026-04-30 19:55 | 38.55857 | 13.38207 | 13951 ft | 360 kts | 19° |
| 2026-04-30 19:55 | 38.58152 | 13.39438 | 14501 ft | 363 kts | 18° |
| 2026-04-30 19:55 | 38.60497 | 13.40696 | 15052 ft | 367 kts | 18° |
| 2026-04-30 19:56 | 38.62861 | 13.41967 | 15606 ft | 370 kts | 18° |
| 2026-04-30 19:56 | 38.65238 | 13.43250 | 16130 ft | 373 kts | 18° |
| 2026-04-30 19:56 | 38.67646 | 13.44549 | 16666 ft | 376 kts | 18° |
| 2026-04-30 19:56 | 38.70067 | 13.45857 | 17166 ft | 379 kts | 18° |
| 2026-04-30 19:57 | 38.72512 | 13.47168 | 17678 ft | 382 kts | 16° |
| 2026-04-30 19:57 | 38.75049 | 13.48008 | 18150 ft | 376 kts | 1° |
| 2026-04-30 19:57 | 38.77643 | 13.47908 | 18590 ft | 370 kts | 345° |
| 2026-04-30 19:57 | 38.80076 | 13.46928 | 18994 ft | 365 kts | 330° |
| 2026-04-30 19:58 | 38.82185 | 13.45171 | 19401 ft | 362 kts | 316° |
| 2026-04-30 19:58 | 38.83863 | 13.42754 | 19813 ft | 360 kts | 302° |
| 2026-04-30 19:58 | 38.84969 | 13.39877 | 20138 ft | 361 kts | 288° |
| 2026-04-30 19:58 | 38.85434 | 13.36715 | 20382 ft | 363 kts | 275° |
| 2026-04-30 19:59 | 38.85496 | 13.33512 | 20625 ft | 364 kts | 274° |
| 2026-04-30 19:59 | 38.85553 | 13.30262 | 20874 ft | 364 kts | 274° |
| 2026-04-30 19:59 | 38.85668 | 13.23731 | 21113 ft | 369 kts | 274° |
| 2026-04-30 20:00 | 38.85732 | 13.20435 | 21114 ft | 370 kts | 274° |
| 2026-04-30 20:00 | 38.85777 | 13.18198 | 21116 ft | 371 kts | 274° |
| 2026-04-30 20:00 | 38.85842 | 13.14928 | 21115 ft | 371 kts | 274° |
| 2026-04-30 20:00 | 38.85908 | 13.11615 | 21114 ft | 371 kts | 274° |
| 2026-04-30 20:01 | 38.86021 | 13.05001 | 21111 ft | 371 kts | 273° |
| 2026-04-30 20:01 | 38.86076 | 13.01683 | 21111 ft | 371 kts | 273° |
| 2026-04-30 20:01 | 38.86132 | 12.98373 | 21110 ft | 371 kts | 273° |
| 2026-04-30 20:02 | 38.86242 | 12.91734 | 21111 ft | 371 kts | 272° |
| 2026-04-30 20:02 | 38.85933 | 12.88472 | 20715 ft | 369 kts | 257° |
| 2026-04-30 20:03 | 38.82966 | 12.83065 | 19027 ft | 391 kts | 220° |
| 2026-04-30 20:03 | 38.80479 | 12.81548 | 18140 ft | 405 kts | 200° |
| 2026-04-30 20:03 | 38.77635 | 12.81196 | 17091 ft | 420 kts | 178° |
| 2026-04-30 20:03 | 38.74765 | 12.82041 | 16060 ft | 427 kts | 166° |
| 2026-04-30 20:04 | 38.71908 | 12.83170 | 15076 ft | 430 kts | 165° |
| 2026-04-30 20:04 | 38.69055 | 12.84337 | 14064 ft | 432 kts | 164° |
| 2026-04-30 20:04 | 38.66195 | 12.85526 | 13147 ft | 430 kts | 164° |
| 2026-04-30 20:05 | 38.60574 | 12.87856 | 11534 ft | 419 kts | 163° |
| 2026-04-30 20:05 | 38.57847 | 12.88966 | 10810 ft | 414 kts | 163° |
| 2026-04-30 20:05 | 38.52567 | 12.91096 | 10264 ft | 382 kts | 163° |
| 2026-04-30 20:06 | 38.50097 | 12.92090 | 10094 ft | 365 kts | 163° |
| 2026-04-30 20:06 | 38.47774 | 12.93023 | 10079 ft | 330 kts | 163° |
| 2026-04-30 20:06 | 38.45670 | 12.93871 | 9738 ft | 308 kts | 163° |
| 2026-04-30 20:06 | 38.43654 | 12.94673 | 9015 ft | 300 kts | 167° |
| 2026-04-30 20:07 | 38.41605 | 12.94992 | 8495 ft | 296 kts | 184° |
| 2026-04-30 20:07 | 38.39593 | 12.94610 | 8104 ft | 289 kts | 199° |
| 2026-04-30 20:07 | 38.36144 | 12.92176 | 7254 ft | 282 kts | 218° |
| 2026-04-30 20:08 | 38.34544 | 12.90737 | 6844 ft | 281 kts | 217° |
| 2026-04-30 20:08 | 38.32955 | 12.89308 | 6431 ft | 279 kts | 217° |
| 2026-04-30 20:08 | 38.31375 | 12.87884 | 5983 ft | 278 kts | 217° |
| 2026-04-30 20:08 | 38.29796 | 12.86459 | 5640 ft | 279 kts | 216° |
| 2026-04-30 20:09 | 38.28206 | 12.85025 | 5414 ft | 281 kts | 216° |
| 2026-04-30 20:09 | 38.26592 | 12.83608 | 5242 ft | 281 kts | 210° |
| 2026-04-30 20:09 | 38.23006 | 12.82919 | 5004 ft | 249 kts | 163° |
| 2026-04-30 20:10 | 38.20018 | 12.84435 | 4602 ft | 221 kts | 153° |
| 2026-04-30 20:10 | 38.18631 | 12.85185 | 4113 ft | 218 kts | 153° |
| 2026-04-30 20:10 | 38.17235 | 12.85942 | 3606 ft | 214 kts | 153° |
| 2026-04-30 20:11 | 38.14610 | 12.87360 | 3101 ft | 197 kts | 152° |
| 2026-04-30 20:11 | 38.13388 | 12.88022 | 2905 ft | 191 kts | 152° |
| 2026-04-30 20:11 | 38.12239 | 12.88805 | 2713 ft | 183 kts | 133° |
| 2026-04-30 20:12 | 38.11685 | 12.91646 | 2365 ft | 172 kts | 69° |
| 2026-04-30 20:12 | 38.12162 | 12.93039 | 2307 ft | 172 kts | 67° |
| 2026-04-30 20:12 | 38.12637 | 12.94428 | 2310 ft | 171 kts | 67° |
| 2026-04-30 20:13 | 38.13109 | 12.95819 | 2264 ft | 172 kts | 67° |
| 2026-04-30 20:13 | 38.13579 | 12.97201 | 1996 ft | 166 kts | 67° |
| 2026-04-30 20:13 | 38.14013 | 12.98486 | 1788 ft | 152 kts | 67° |
| 2026-04-30 20:13 | 38.14418 | 12.99693 | 1574 ft | 146 kts | 67° |
| 2026-04-30 20:14 | 38.14811 | 13.00862 | 1389 ft | 143 kts | 67° |
| 2026-04-30 20:14 | 38.15200 | 13.02017 | 1195 ft | 142 kts | 67° |
| 2026-04-30 20:14 | 38.15584 | 13.03170 | 1011 ft | 141 kts | 66° |
| 2026-04-30 20:14 | 38.15963 | 13.04317 | 816 ft | 140 kts | 66° |
| 2026-04-30 20:15 | 38.16353 | 13.05446 | 653 ft | 138 kts | 64° |
| 2026-04-30 20:15 | 38.16743 | 13.06556 | 461 ft | 137 kts | 66° |
| 2026-04-30 20:15 | 38.17108 | 13.07671 | 303 ft | 136 kts | 66° |
| 2026-04-30 20:15 | 38.17475 | 13.08778 | 100 ft | 135 kts | 67° |
| 2026-04-30 20:16 | 38.17825 | 13.09811 | 60 ft | 118 kts | 67° |
| 2026-04-30 20:16 | 38.18106 | 13.10658 | 50 ft | 80 kts | 67° |
| 2026-04-30 20:16 | 38.18260 | 13.11117 | 53 ft | 42 kts | 66° |
| 2026-04-30 20:16 | 38.18374 | 13.11456 | 53 ft | 41 kts | 67° |
| 2026-04-30 20:17 | 38.18482 | 13.11777 | 51 ft | 32 kts | 66° |
| 2026-04-30 20:17 | 38.18569 | 13.11879 | 53 ft | 15 kts | 344° |
| 2026-04-30 20:17 | 38.18602 | 13.11761 | 53 ft | 16 kts | 278° |
| 2026-04-30 20:17 | 38.18616 | 13.11610 | 53 ft | 18 kts | 275° |
| 2026-04-30 20:18 | 38.18588 | 13.11476 | 51 ft | 15 kts | 249° |
| 2026-04-30 20:18 | 38.18546 | 13.11352 | 53 ft | 18 kts | 247° |
| 2026-04-30 20:18 | 38.18483 | 13.11164 | 52 ft | 26 kts | 246° |
| 2026-04-30 20:18 | 38.18428 | 13.10981 | 53 ft | 16 kts | 274° |
| 2026-04-30 20:19 | 38.18469 | 13.10890 | 51 ft | 7 kts | 279° |
| 2026-04-30 20:19 | 38.18477 | 13.10855 | 53 ft | 3 kts | 289° |
| 2026-04-30 20:19 | 38.18485 | 13.10824 | 53 ft | 5 kts | 289° |
| 2026-04-30 20:19 | 38.18504 | 13.10757 | 53 ft | 11 kts | 286° |
| 2026-04-30 20:20 | 38.18480 | 13.10642 | 53 ft | 14 kts | 247° |
| 2026-04-30 20:20 | 38.18434 | 13.10625 | 53 ft | 7 kts | 161° |
| 2026-04-30 20:20 | 38.18402 | 13.10642 | 53 ft | 1 kts | 157° |
| 2026-04-30 20:20 | 38.18401 | 13.10642 | 53 ft | 0 kts | 157° |